LNI932 OJAQ-VIAG
Flight info
| Callsign | LNI932 |
|---|---|
| Flight time | N/A |
| Altitude | 31000 |
| Route | TAMIM DCT DEESA Y415 NIMAR DCT KFR A788 SYZ G452 ZDN N319 DERBO G452 SOKIR/N0452F330 J177 KALAT G452 RK R471 MERUN L333 JJP W123 AGG |
| Aircraft | B739/M-SDE2E3FGHIRWXY/EB1 |
Departure
| Time | 2026-04-14 00:28 |
|---|---|
| Airport | King Hussein International Airport (OJAQ) |
Arrival
| Time | N/A |
|---|---|
| Airport | Agra Airport / Agra Air Force Station (VIAG) |
| Time | Latitude | Longitude | Altitude | Speed | Heading |
|---|---|---|---|---|---|
| 2026-04-14 00:04 | 29.62103 | 35.02447 | 126 ft | 0 kts | 109° |
| 2026-04-14 00:15 | 29.62109 | 35.02425 | 126 ft | 4 kts | 105° |
| 2026-04-14 00:15 | 29.62118 | 35.02396 | 121 ft | 4 kts | 120° |
| 2026-04-14 00:16 | 29.62132 | 35.02369 | 122 ft | 4 kts | 119° |
| 2026-04-14 00:16 | 29.62145 | 35.02345 | 121 ft | 2 kts | 126° |
| 2026-04-14 00:16 | 29.62148 | 35.02340 | 121 ft | 1 kts | 126° |
| 2026-04-14 00:18 | 29.62140 | 35.02349 | 122 ft | 3 kts | 143° |
| 2026-04-14 00:19 | 29.62107 | 35.02352 | 125 ft | 6 kts | 189° |
| 2026-04-14 00:19 | 29.62059 | 35.02338 | 128 ft | 8 kts | 198° |
| 2026-04-14 00:19 | 29.61998 | 35.02305 | 126 ft | 11 kts | 210° |
| 2026-04-14 00:19 | 29.61922 | 35.02268 | 131 ft | 13 kts | 198° |
| 2026-04-14 00:20 | 29.61835 | 35.02238 | 133 ft | 13 kts | 195° |
| 2026-04-14 00:20 | 29.61749 | 35.02207 | 135 ft | 13 kts | 195° |
| 2026-04-14 00:20 | 29.61665 | 35.02177 | 137 ft | 13 kts | 198° |
| 2026-04-14 00:20 | 29.61584 | 35.02140 | 139 ft | 13 kts | 205° |
| 2026-04-14 00:21 | 29.61500 | 35.02108 | 141 ft | 13 kts | 196° |
| 2026-04-14 00:21 | 29.61416 | 35.02079 | 143 ft | 13 kts | 198° |
| 2026-04-14 00:21 | 29.61330 | 35.02047 | 145 ft | 13 kts | 198° |
| 2026-04-14 00:21 | 29.61240 | 35.02015 | 147 ft | 14 kts | 194° |
| 2026-04-14 00:22 | 29.61144 | 35.01983 | 149 ft | 15 kts | 198° |
| 2026-04-14 00:22 | 29.61046 | 35.01966 | 151 ft | 14 kts | 191° |
| 2026-04-14 00:22 | 29.60952 | 35.01932 | 153 ft | 14 kts | 199° |
| 2026-04-14 00:22 | 29.60861 | 35.01898 | 156 ft | 14 kts | 197° |
| 2026-04-14 00:23 | 29.60772 | 35.01866 | 158 ft | 13 kts | 197° |
| 2026-04-14 00:23 | 29.60682 | 35.01835 | 160 ft | 14 kts | 197° |
| 2026-04-14 00:23 | 29.60593 | 35.01803 | 162 ft | 13 kts | 197° |
| 2026-04-14 00:23 | 29.60508 | 35.01773 | 164 ft | 13 kts | 197° |
| 2026-04-14 00:24 | 29.60425 | 35.01743 | 166 ft | 12 kts | 197° |
| 2026-04-14 00:24 | 29.60343 | 35.01714 | 168 ft | 12 kts | 197° |
| 2026-04-14 00:24 | 29.60261 | 35.01685 | 170 ft | 12 kts | 196° |
| 2026-04-14 00:24 | 29.60176 | 35.01658 | 172 ft | 13 kts | 196° |
| 2026-04-14 00:25 | 29.60092 | 35.01629 | 174 ft | 12 kts | 197° |
| 2026-04-14 00:25 | 29.60010 | 35.01600 | 176 ft | 12 kts | 197° |
| 2026-04-14 00:25 | 29.59928 | 35.01572 | 178 ft | 13 kts | 197° |
| 2026-04-14 00:25 | 29.59843 | 35.01542 | 180 ft | 13 kts | 197° |
| 2026-04-14 00:26 | 29.59776 | 35.01481 | 182 ft | 13 kts | 260° |
| 2026-04-14 00:26 | 29.59802 | 35.01382 | 184 ft | 13 kts | 291° |
| 2026-04-14 00:26 | 29.59834 | 35.01346 | 183 ft | 5 kts | 356° |
| 2026-04-14 00:26 | 29.59869 | 35.01357 | 181 ft | 6 kts | 17° |
| 2026-04-14 00:27 | 29.59920 | 35.01375 | 179 ft | 13 kts | 17° |
| 2026-04-14 00:27 | 29.60229 | 35.01482 | 171 ft | 82 kts | 17° |
| 2026-04-14 00:27 | 29.60980 | 35.01744 | 154 ft | 141 kts | 17° |
| 2026-04-14 00:27 | 29.62065 | 35.02115 | 284 ft | 175 kts | 16° |
| 2026-04-14 00:28 | 29.63262 | 35.02520 | 844 ft | 186 kts | 12° |
| 2026-04-14 00:28 | 29.64570 | 35.02719 | 1422 ft | 196 kts | 6° |
| 2026-04-14 00:28 | 29.65910 | 35.02912 | 2111 ft | 197 kts | 8° |
| 2026-04-14 00:28 | 29.67325 | 35.03156 | 2358 ft | 215 kts | 9° |
| 2026-04-14 00:29 | 29.68834 | 35.03416 | 2609 ft | 227 kts | 9° |
| 2026-04-14 00:29 | 29.70448 | 35.03708 | 2912 ft | 241 kts | 9° |
| 2026-04-14 00:29 | 29.72130 | 35.04010 | 3484 ft | 247 kts | 9° |
| 2026-04-14 00:29 | 29.73843 | 35.04317 | 4053 ft | 252 kts | 12° |
| 2026-04-14 00:30 | 29.75541 | 35.04864 | 4607 ft | 255 kts | 21° |
| 2026-04-14 00:30 | 29.77223 | 35.05581 | 5170 ft | 260 kts | 22° |
| 2026-04-14 00:30 | 29.78931 | 35.06333 | 5723 ft | 265 kts | 22° |
| 2026-04-14 00:30 | 29.80668 | 35.07090 | 6279 ft | 269 kts | 22° |
| 2026-04-14 00:31 | 29.82441 | 35.07853 | 6811 ft | 274 kts | 21° |
| 2026-04-14 00:31 | 29.84233 | 35.08615 | 7392 ft | 275 kts | 21° |
| 2026-04-14 00:31 | 29.86038 | 35.09377 | 7974 ft | 277 kts | 21° |
| 2026-04-14 00:31 | 29.87864 | 35.10144 | 8529 ft | 280 kts | 21° |
| 2026-04-14 00:32 | 29.91536 | 35.11683 | 9670 ft | 285 kts | 21° |
| 2026-04-14 00:32 | 29.93407 | 35.12466 | 10213 ft | 287 kts | 20° |
| 2026-04-14 00:32 | 29.95255 | 35.13345 | 10721 ft | 288 kts | 34° |
| 2026-04-14 00:33 | 29.96644 | 35.14969 | 11192 ft | 286 kts | 63° |
| 2026-04-14 00:33 | 29.97228 | 35.17133 | 11665 ft | 285 kts | 89° |
| 2026-04-14 00:33 | 29.96930 | 35.19373 | 12118 ft | 285 kts | 114° |
| 2026-04-14 00:33 | 29.95817 | 35.21249 | 12583 ft | 286 kts | 140° |
| 2026-04-14 00:34 | 29.94097 | 35.22398 | 13056 ft | 289 kts | 163° |
| 2026-04-14 00:34 | 29.92118 | 35.22845 | 13561 ft | 291 kts | 172° |
| 2026-04-14 00:34 | 29.90093 | 35.23120 | 14030 ft | 294 kts | 173° |
| 2026-04-14 00:34 | 29.88058 | 35.23373 | 14496 ft | 295 kts | 173° |
| 2026-04-14 00:35 | 29.86007 | 35.23637 | 14925 ft | 298 kts | 172° |
| 2026-04-14 00:35 | 29.83935 | 35.23915 | 15356 ft | 300 kts | 172° |
| 2026-04-14 00:35 | 29.81856 | 35.24205 | 15798 ft | 302 kts | 172° |
| 2026-04-14 00:35 | 29.79757 | 35.24503 | 16245 ft | 304 kts | 172° |
| 2026-04-14 00:36 | 29.77645 | 35.24807 | 16656 ft | 307 kts | 173° |
| 2026-04-14 00:36 | 29.75510 | 35.25114 | 17067 ft | 311 kts | 173° |
| 2026-04-14 00:36 | 29.73424 | 35.25678 | 17429 ft | 314 kts | 154° |
| 2026-04-14 00:36 | 29.71607 | 35.27126 | 17589 ft | 325 kts | 136° |
| 2026-04-14 00:37 | 29.69991 | 35.28987 | 17900 ft | 331 kts | 135° |
| 2026-04-14 00:37 | 29.68380 | 35.30898 | 18318 ft | 334 kts | 134° |
| 2026-04-14 00:37 | 29.66751 | 35.32825 | 18706 ft | 337 kts | 135° |
| 2026-04-14 00:37 | 29.65105 | 35.34758 | 19084 ft | 340 kts | 135° |
| 2026-04-14 00:38 | 29.63436 | 35.36701 | 19469 ft | 342 kts | 135° |
| 2026-04-14 00:38 | 29.62327 | 35.37987 | 19735 ft | 343 kts | 135° |
| 2026-04-14 00:38 | 29.60088 | 35.40575 | 20253 ft | 346 kts | 135° |
| 2026-04-14 00:38 | 29.58385 | 35.42540 | 20612 ft | 349 kts | 135° |
| 2026-04-14 00:39 | 29.56668 | 35.44518 | 20977 ft | 351 kts | 135° |
| 2026-04-14 00:39 | 29.55524 | 35.45897 | 21204 ft | 354 kts | 128° |
| 2026-04-14 00:39 | 29.54366 | 35.48385 | 21506 ft | 357 kts | 104° |
| 2026-04-14 00:39 | 29.54080 | 35.51191 | 21628 ft | 365 kts | 83° |
| 2026-04-14 00:40 | 29.54599 | 35.54079 | 21748 ft | 374 kts | 74° |
| 2026-04-14 00:40 | 29.55306 | 35.56998 | 21821 ft | 385 kts | 73° |
| 2026-04-14 00:40 | 29.56059 | 35.59994 | 21912 ft | 396 kts | 73° |
| 2026-04-14 00:40 | 29.56828 | 35.63084 | 21990 ft | 407 kts | 73° |
| 2026-04-14 00:41 | 29.57599 | 35.66248 | 22074 ft | 417 kts | 74° |
| 2026-04-14 00:41 | 29.58378 | 35.69502 | 22178 ft | 426 kts | 74° |
| 2026-04-14 00:41 | 29.59162 | 35.72821 | 22370 ft | 432 kts | 74° |
| 2026-04-14 00:41 | 29.59951 | 35.76173 | 22672 ft | 435 kts | 74° |
| 2026-04-14 00:42 | 29.60743 | 35.79539 | 23036 ft | 437 kts | 74° |
| 2026-04-14 00:42 | 29.61495 | 35.82930 | 23395 ft | 439 kts | 76° |
| 2026-04-14 00:42 | 29.62114 | 35.86371 | 23723 ft | 441 kts | 78° |
| 2026-04-14 00:42 | 29.62672 | 35.89855 | 24000 ft | 444 kts | 79° |
| 2026-04-14 00:43 | 29.63212 | 35.93355 | 24261 ft | 446 kts | 79° |
| 2026-04-14 00:43 | 29.63752 | 35.96836 | 24537 ft | 448 kts | 79° |
| 2026-04-14 00:43 | 29.64310 | 36.00368 | 24812 ft | 450 kts | 78° |
| 2026-04-14 00:43 | 29.64881 | 36.03916 | 25090 ft | 452 kts | 78° |
| 2026-04-14 00:44 | 29.65461 | 36.07482 | 25360 ft | 454 kts | 78° |
| 2026-04-14 00:44 | 29.66046 | 36.11064 | 25630 ft | 456 kts | 78° |
| 2026-04-14 00:44 | 29.66633 | 36.14649 | 25885 ft | 458 kts | 78° |
| 2026-04-14 00:44 | 29.67226 | 36.18269 | 26132 ft | 461 kts | 78° |
| 2026-04-14 00:45 | 29.67817 | 36.21894 | 26382 ft | 463 kts | 78° |
| 2026-04-14 00:45 | 29.68410 | 36.25538 | 26631 ft | 465 kts | 78° |
| 2026-04-14 00:45 | 29.69004 | 36.29195 | 26877 ft | 467 kts | 78° |
| 2026-04-14 00:45 | 29.69600 | 36.32873 | 27117 ft | 469 kts | 78° |
| 2026-04-14 00:46 | 29.70198 | 36.36572 | 27356 ft | 471 kts | 78° |
| 2026-04-14 00:46 | 29.70798 | 36.40282 | 27588 ft | 473 kts | 78° |
| 2026-04-14 00:46 | 29.71392 | 36.43973 | 27818 ft | 475 kts | 78° |
| 2026-04-14 00:46 | 29.71994 | 36.47716 | 28046 ft | 476 kts | 78° |
| 2026-04-14 00:47 | 29.72596 | 36.51468 | 28292 ft | 478 kts | 78° |
| 2026-04-14 00:47 | 29.73199 | 36.55229 | 28581 ft | 478 kts | 78° |
| 2026-04-14 00:47 | 29.73803 | 36.59001 | 28912 ft | 477 kts | 78° |
| 2026-04-14 00:47 | 29.74402 | 36.62754 | 29254 ft | 477 kts | 78° |
| 2026-04-14 00:48 | 29.74858 | 36.66535 | 29565 ft | 477 kts | 86° |
| 2026-04-14 00:48 | 29.74837 | 36.70361 | 29863 ft | 478 kts | 95° |
| 2026-04-14 00:48 | 29.74321 | 36.74095 | 30130 ft | 478 kts | 103° |
| 2026-04-14 00:48 | 29.73560 | 36.77871 | 30379 ft | 479 kts | 103° |
| 2026-04-14 00:49 | 29.72776 | 36.81595 | 30571 ft | 480 kts | 104° |
| 2026-04-14 00:49 | 29.71998 | 36.85283 | 30769 ft | 481 kts | 103° |
| 2026-04-14 00:49 | 29.71221 | 36.89021 | 31026 ft | 480 kts | 103° |
| 2026-04-14 00:49 | 29.70455 | 36.92761 | 31160 ft | 481 kts | 103° |
| 2026-04-14 00:50 | 29.69698 | 36.96506 | 31146 ft | 481 kts | 103° |
| 2026-04-14 00:50 | 29.68196 | 37.03997 | 31146 ft | 479 kts | 103° |
| 2026-04-14 00:51 | 29.66702 | 37.11449 | 31157 ft | 477 kts | 103° |
| 2026-04-14 00:51 | 29.65208 | 37.18867 | 31156 ft | 476 kts | 103° |
| 2026-04-14 00:52 | 29.63709 | 37.26279 | 31160 ft | 476 kts | 103° |
| 2026-04-14 00:52 | 29.62207 | 37.33686 | 31155 ft | 476 kts | 103° |
| 2026-04-14 00:53 | 29.60698 | 37.41098 | 31161 ft | 477 kts | 103° |
| 2026-04-14 00:53 | 29.59183 | 37.48524 | 31161 ft | 478 kts | 103° |
| 2026-04-14 00:54 | 29.57659 | 37.55971 | 31161 ft | 479 kts | 103° |
| 2026-04-14 00:54 | 29.56136 | 37.63388 | 31154 ft | 480 kts | 103° |
| 2026-04-14 00:55 | 29.54598 | 37.70856 | 31157 ft | 481 kts | 103° |
| 2026-04-14 00:55 | 29.53052 | 37.78341 | 31154 ft | 481 kts | 103° |
| 2026-04-14 00:56 | 29.51501 | 37.85830 | 31158 ft | 482 kts | 104° |
| 2026-04-14 00:56 | 29.49947 | 37.93314 | 31149 ft | 482 kts | 104° |
| 2026-04-14 00:57 | 29.48403 | 38.00755 | 31149 ft | 481 kts | 103° |
| 2026-04-14 00:57 | 29.47038 | 38.08272 | 31154 ft | 481 kts | 101° |
| 2026-04-14 00:58 | 29.45747 | 38.15801 | 31145 ft | 481 kts | 102° |
| 2026-04-14 00:58 | 29.44432 | 38.23327 | 31148 ft | 480 kts | 102° |
| 2026-04-14 00:59 | 29.43094 | 38.30831 | 31149 ft | 480 kts | 102° |
| 2026-04-14 00:59 | 29.41747 | 38.38329 | 31140 ft | 480 kts | 102° |
| 2026-04-14 01:00 | 29.40403 | 38.45791 | 31148 ft | 480 kts | 102° |
| 2026-04-14 01:00 | 29.39048 | 38.53291 | 31150 ft | 480 kts | 102° |
| 2026-04-14 01:01 | 29.37687 | 38.60803 | 31142 ft | 481 kts | 102° |
| 2026-04-14 01:01 | 29.36320 | 38.68322 | 31148 ft | 481 kts | 102° |
| 2026-04-14 01:02 | 29.34948 | 38.75848 | 31150 ft | 482 kts | 102° |
| 2026-04-14 01:02 | 29.33578 | 38.83336 | 31148 ft | 483 kts | 102° |
| 2026-04-14 01:03 | 29.32193 | 38.90870 | 31140 ft | 483 kts | 103° |
| 2026-04-14 01:03 | 29.30671 | 38.98381 | 31149 ft | 483 kts | 104° |
| 2026-04-14 01:04 | 29.29073 | 39.05862 | 31154 ft | 484 kts | 104° |
| 2026-04-14 01:04 | 29.27481 | 39.13354 | 31151 ft | 484 kts | 104° |
| 2026-04-14 01:05 | 29.25899 | 39.20863 | 31156 ft | 484 kts | 104° |
| 2026-04-14 01:05 | 29.24331 | 39.28304 | 31154 ft | 484 kts | 104° |
| 2026-04-14 01:06 | 29.22747 | 39.35804 | 31158 ft | 484 kts | 105° |
| 2026-04-14 01:06 | 29.21158 | 39.43297 | 31158 ft | 484 kts | 105° |
| 2026-04-14 01:07 | 29.19564 | 39.50792 | 31159 ft | 484 kts | 105° |
| 2026-04-14 01:07 | 29.17968 | 39.58273 | 31161 ft | 484 kts | 105° |
| 2026-04-14 01:08 | 29.16368 | 39.65753 | 31168 ft | 484 kts | 105° |
| 2026-04-14 01:08 | 29.14762 | 39.73240 | 31168 ft | 484 kts | 105° |
| 2026-04-14 01:09 | 29.13154 | 39.80717 | 31169 ft | 484 kts | 105° |
| 2026-04-14 01:09 | 29.11543 | 39.88187 | 31166 ft | 484 kts | 105° |
| 2026-04-14 01:10 | 29.10692 | 39.95813 | 31185 ft | 485 kts | 92° |
| 2026-04-14 01:10 | 29.10503 | 40.03530 | 31174 ft | 485 kts | 92° |
| 2026-04-14 01:11 | 29.10325 | 40.11265 | 31173 ft | 486 kts | 92° |
| 2026-04-14 01:11 | 29.10101 | 40.18988 | 31174 ft | 486 kts | 92° |
| 2026-04-14 01:12 | 29.09850 | 40.26669 | 31178 ft | 486 kts | 93° |
| 2026-04-14 01:12 | 29.09585 | 40.34412 | 31178 ft | 487 kts | 93° |
| 2026-04-14 01:13 | 29.09318 | 40.42145 | 31183 ft | 487 kts | 93° |
| 2026-04-14 01:13 | 29.09047 | 40.49891 | 31184 ft | 487 kts | 93° |
| 2026-04-14 01:14 | 29.08773 | 40.57646 | 31183 ft | 487 kts | 93° |
| 2026-04-14 01:14 | 29.08494 | 40.65388 | 31188 ft | 488 kts | 93° |
| 2026-04-14 01:15 | 29.08210 | 40.73141 | 31190 ft | 488 kts | 93° |
| 2026-04-14 01:15 | 29.07923 | 40.80892 | 31191 ft | 488 kts | 93° |
| 2026-04-14 01:16 | 29.07632 | 40.88600 | 31190 ft | 488 kts | 93° |
| 2026-04-14 01:16 | 29.07334 | 40.96360 | 31193 ft | 488 kts | 93° |
| 2026-04-14 01:18 | 29.06102 | 41.27362 | 31195 ft | 488 kts | 94° |
| 2026-04-14 01:19 | 29.05782 | 41.35131 | 31192 ft | 488 kts | 94° |
| 2026-04-14 01:19 | 29.05478 | 41.42398 | 31191 ft | 488 kts | 94° |
| 2026-04-14 01:20 | 29.05150 | 41.50153 | 31191 ft | 489 kts | 94° |
| 2026-04-14 01:20 | 29.04817 | 41.57920 | 31193 ft | 489 kts | 94° |
| 2026-04-14 01:21 | 29.04480 | 41.65681 | 31193 ft | 489 kts | 94° |
| 2026-04-14 01:21 | 29.04138 | 41.73437 | 31193 ft | 489 kts | 94° |
| 2026-04-14 01:22 | 29.03791 | 41.81206 | 31193 ft | 489 kts | 94° |
| 2026-04-14 01:22 | 29.03442 | 41.88929 | 31194 ft | 490 kts | 94° |
| 2026-04-14 01:23 | 29.03086 | 41.96708 | 31194 ft | 490 kts | 94° |
| 2026-04-14 01:23 | 29.02726 | 42.04486 | 31189 ft | 490 kts | 94° |
| 2026-04-14 01:24 | 29.02361 | 42.12264 | 31185 ft | 490 kts | 94° |
| 2026-04-14 01:24 | 29.02054 | 42.18726 | 31192 ft | 490 kts | 94° |
| 2026-04-14 01:25 | 29.01680 | 42.26518 | 31194 ft | 490 kts | 94° |
| 2026-04-14 01:25 | 29.01301 | 42.34306 | 31189 ft | 490 kts | 94° |
| 2026-04-14 01:26 | 29.00919 | 42.42083 | 31193 ft | 491 kts | 94° |
| 2026-04-14 01:26 | 29.00532 | 42.49872 | 31187 ft | 491 kts | 95° |
| 2026-04-14 01:27 | 29.00140 | 42.57660 | 31188 ft | 491 kts | 95° |
| 2026-04-14 01:27 | 28.99744 | 42.65439 | 31185 ft | 491 kts | 95° |
| 2026-04-14 01:28 | 28.99343 | 42.73228 | 31181 ft | 491 kts | 95° |
| 2026-04-14 01:28 | 28.98937 | 42.81017 | 31183 ft | 491 kts | 95° |
| 2026-04-14 01:29 | 28.98530 | 42.88758 | 31186 ft | 491 kts | 95° |
| 2026-04-14 01:29 | 28.98115 | 42.96557 | 31174 ft | 491 kts | 95° |
| 2026-04-14 01:30 | 28.97696 | 43.04349 | 31171 ft | 491 kts | 95° |
| 2026-04-14 01:30 | 28.97272 | 43.12142 | 31172 ft | 492 kts | 95° |
| 2026-04-14 01:31 | 28.96844 | 43.19933 | 31171 ft | 491 kts | 95° |
| 2026-04-14 01:31 | 28.96413 | 43.27680 | 31168 ft | 492 kts | 95° |
| 2026-04-14 01:32 | 28.95976 | 43.35475 | 31167 ft | 491 kts | 95° |
| 2026-04-14 01:32 | 28.95534 | 43.43275 | 31163 ft | 492 kts | 96° |
| 2026-04-14 01:33 | 28.95088 | 43.51063 | 31162 ft | 492 kts | 96° |
| 2026-04-14 01:33 | 28.94637 | 43.58847 | 31165 ft | 492 kts | 96° |
| 2026-04-14 01:34 | 28.94182 | 43.66636 | 31165 ft | 492 kts | 96° |
| 2026-04-14 01:34 | 28.93722 | 43.74431 | 31164 ft | 492 kts | 96° |
| 2026-04-14 01:35 | 28.93257 | 43.82223 | 31163 ft | 491 kts | 96° |
| 2026-04-14 01:35 | 28.92789 | 43.90008 | 31164 ft | 491 kts | 96° |
| 2026-04-14 01:36 | 28.92316 | 43.97790 | 31165 ft | 491 kts | 96° |
| 2026-04-14 01:36 | 28.91839 | 44.05563 | 31161 ft | 491 kts | 96° |
| 2026-04-14 01:37 | 28.91360 | 44.13303 | 31166 ft | 491 kts | 96° |
| 2026-04-14 01:37 | 28.90874 | 44.21081 | 31160 ft | 491 kts | 96° |
| 2026-04-14 01:38 | 28.90136 | 44.32746 | 31156 ft | 491 kts | 97° |
| 2026-04-14 01:38 | 28.89643 | 44.40459 | 31159 ft | 491 kts | 97° |
| 2026-04-14 01:39 | 28.89141 | 44.48238 | 31154 ft | 491 kts | 97° |
| 2026-04-14 01:39 | 28.88635 | 44.56005 | 31154 ft | 491 kts | 97° |
| 2026-04-14 01:40 | 28.88125 | 44.63771 | 31165 ft | 491 kts | 97° |
| 2026-04-14 01:40 | 28.87610 | 44.71544 | 31155 ft | 491 kts | 97° |
| 2026-04-14 01:41 | 28.87090 | 44.79322 | 31164 ft | 491 kts | 97° |
| 2026-04-14 01:41 | 28.86565 | 44.87098 | 31153 ft | 491 kts | 97° |
| 2026-04-14 01:42 | 28.86036 | 44.94881 | 31156 ft | 492 kts | 97° |
| 2026-04-14 01:42 | 28.85502 | 45.02661 | 31149 ft | 492 kts | 97° |
| 2026-04-14 01:43 | 28.84964 | 45.10443 | 31148 ft | 492 kts | 97° |
| 2026-04-14 01:43 | 28.84425 | 45.18173 | 31151 ft | 492 kts | 98° |
| 2026-04-14 01:44 | 28.83877 | 45.25959 | 31150 ft | 493 kts | 98° |
| 2026-04-14 01:44 | 28.83325 | 45.33742 | 31153 ft | 493 kts | 98° |
| 2026-04-14 01:45 | 28.82767 | 45.41553 | 31153 ft | 493 kts | 98° |
| 2026-04-14 01:45 | 28.82205 | 45.49349 | 31154 ft | 494 kts | 98° |
| 2026-04-14 01:46 | 28.81638 | 45.57147 | 31146 ft | 494 kts | 98° |
| 2026-04-14 01:46 | 28.81066 | 45.64959 | 31147 ft | 494 kts | 98° |
| 2026-04-14 01:47 | 28.80489 | 45.72778 | 31155 ft | 494 kts | 98° |
| 2026-04-14 01:47 | 28.79907 | 45.80590 | 31150 ft | 495 kts | 98° |
| 2026-04-14 01:48 | 28.79322 | 45.88400 | 31147 ft | 495 kts | 98° |
| 2026-04-14 01:48 | 28.78730 | 45.96228 | 31152 ft | 495 kts | 98° |
| 2026-04-14 01:49 | 28.78138 | 46.04003 | 31150 ft | 495 kts | 98° |
| 2026-04-14 01:49 | 28.77538 | 46.11823 | 31150 ft | 495 kts | 98° |
| 2026-04-14 01:50 | 28.76933 | 46.19645 | 31152 ft | 495 kts | 98° |
| 2026-04-14 01:50 | 28.76325 | 46.27450 | 31148 ft | 495 kts | 98° |
| 2026-04-14 01:51 | 28.75712 | 46.35260 | 31151 ft | 495 kts | 98° |
| 2026-04-14 01:51 | 28.75095 | 46.43064 | 31144 ft | 495 kts | 98° |
| 2026-04-14 01:52 | 28.74472 | 46.50882 | 31146 ft | 494 kts | 98° |
| 2026-04-14 01:52 | 28.73846 | 46.58680 | 31143 ft | 494 kts | 98° |
| 2026-04-14 01:53 | 28.73219 | 46.66433 | 31143 ft | 494 kts | 98° |
| 2026-04-14 01:53 | 28.72581 | 46.74270 | 31141 ft | 494 kts | 98° |
| 2026-04-14 01:54 | 28.71945 | 46.82023 | 31140 ft | 494 kts | 99° |
| 2026-04-14 01:54 | 28.71302 | 46.89819 | 31144 ft | 494 kts | 99° |
| 2026-04-14 01:55 | 28.70653 | 46.97621 | 31142 ft | 494 kts | 99° |
| 2026-04-14 01:55 | 28.69999 | 47.05425 | 31141 ft | 495 kts | 99° |
| 2026-04-14 01:56 | 28.69341 | 47.13229 | 31140 ft | 495 kts | 99° |
| 2026-04-14 01:56 | 28.68678 | 47.21031 | 31139 ft | 495 kts | 99° |
| 2026-04-14 01:57 | 28.68011 | 47.28836 | 31140 ft | 496 kts | 99° |
| 2026-04-14 01:57 | 28.67338 | 47.36657 | 31141 ft | 496 kts | 99° |
| 2026-04-14 01:58 | 28.66663 | 47.44438 | 31138 ft | 497 kts | 99° |
| 2026-04-14 01:58 | 28.65980 | 47.52272 | 31141 ft | 497 kts | 99° |
| 2026-04-14 01:59 | 28.65291 | 47.60111 | 31135 ft | 497 kts | 99° |
| 2026-04-14 01:59 | 28.64598 | 47.67949 | 31133 ft | 498 kts | 99° |
| 2026-04-14 02:00 | 28.63900 | 47.75793 | 31133 ft | 498 kts | 99° |
| 2026-04-14 02:00 | 28.63196 | 47.83658 | 31136 ft | 499 kts | 99° |
| 2026-04-14 02:01 | 28.62489 | 47.91518 | 31131 ft | 499 kts | 98° |
| 2026-04-14 02:01 | 28.62743 | 47.99392 | 31129 ft | 504 kts | 79° |
| 2026-04-14 02:02 | 28.64432 | 48.07144 | 31126 ft | 505 kts | 76° |
| 2026-04-14 02:02 | 28.66199 | 48.14894 | 31121 ft | 505 kts | 76° |
| 2026-04-14 02:03 | 28.67895 | 48.22664 | 31127 ft | 506 kts | 77° |
| 2026-04-14 02:03 | 28.69556 | 48.30453 | 31127 ft | 506 kts | 77° |
| 2026-04-14 02:04 | 28.71218 | 48.38263 | 31123 ft | 507 kts | 77° |
| 2026-04-14 02:04 | 28.72878 | 48.46068 | 31124 ft | 507 kts | 77° |
| 2026-04-14 02:05 | 28.74578 | 48.53870 | 31120 ft | 508 kts | 76° |
| 2026-04-14 02:05 | 28.76378 | 48.61663 | 31124 ft | 508 kts | 76° |
| 2026-04-14 02:06 | 28.78169 | 48.69455 | 31127 ft | 508 kts | 76° |
| 2026-04-14 02:06 | 28.79937 | 48.77250 | 31126 ft | 508 kts | 76° |
| 2026-04-14 02:07 | 28.81572 | 48.85034 | 31126 ft | 507 kts | 79° |
| 2026-04-14 02:07 | 28.82993 | 48.92927 | 31132 ft | 507 kts | 79° |
| 2026-04-14 02:08 | 28.84436 | 49.00816 | 31131 ft | 507 kts | 79° |
| 2026-04-14 02:08 | 28.85662 | 49.07367 | 31135 ft | 508 kts | 78° |
| 2026-04-14 02:09 | 28.87165 | 49.15233 | 31132 ft | 508 kts | 78° |
| 2026-04-14 02:09 | 28.88911 | 49.24389 | 31132 ft | 508 kts | 78° |
| 2026-04-14 02:10 | 28.90145 | 49.30996 | 31132 ft | 508 kts | 78° |
| 2026-04-14 02:10 | 28.91615 | 49.38876 | 31132 ft | 508 kts | 78° |
| 2026-04-14 02:11 | 28.93088 | 49.46758 | 31130 ft | 508 kts | 77° |
| 2026-04-14 02:11 | 28.95449 | 49.54297 | 31147 ft | 507 kts | 64° |
| 2026-04-14 02:12 | 28.98459 | 49.61579 | 31129 ft | 507 kts | 63° |
| 2026-04-14 02:12 | 29.01462 | 49.68869 | 31133 ft | 507 kts | 64° |
| 2026-04-14 02:13 | 29.04414 | 49.76202 | 31131 ft | 508 kts | 64° |
| 2026-04-14 02:13 | 29.07324 | 49.83511 | 31130 ft | 508 kts | 64° |
| 2026-04-14 02:14 | 29.10249 | 49.90869 | 31130 ft | 508 kts | 64° |
| 2026-04-14 02:14 | 29.13171 | 49.98225 | 31129 ft | 508 kts | 64° |
| 2026-04-14 02:15 | 29.16092 | 50.05588 | 31128 ft | 508 kts | 64° |
| 2026-04-14 02:15 | 29.19008 | 50.12955 | 31127 ft | 508 kts | 64° |
| 2026-04-14 02:16 | 29.21918 | 50.20324 | 31126 ft | 508 kts | 64° |
| 2026-04-14 02:16 | 29.24806 | 50.27648 | 31124 ft | 508 kts | 64° |
| 2026-04-14 02:17 | 29.27023 | 50.35296 | 31111 ft | 507 kts | 81° |
| 2026-04-14 02:17 | 29.28027 | 50.43293 | 31122 ft | 507 kts | 83° |
| 2026-04-14 02:18 | 29.28971 | 50.51292 | 31123 ft | 507 kts | 83° |
| 2026-04-14 02:18 | 29.29969 | 50.59286 | 31123 ft | 507 kts | 82° |
| 2026-04-14 02:19 | 29.30997 | 50.67287 | 31120 ft | 507 kts | 82° |
| 2026-04-14 02:19 | 29.32025 | 50.75291 | 31121 ft | 507 kts | 82° |
| 2026-04-14 02:20 | 29.33046 | 50.83309 | 31122 ft | 508 kts | 82° |
| 2026-04-14 02:20 | 29.34052 | 50.91261 | 31123 ft | 508 kts | 82° |
| 2026-04-14 02:21 | 29.35060 | 50.99273 | 31123 ft | 508 kts | 83° |
| 2026-04-14 02:21 | 29.36064 | 51.07289 | 31125 ft | 508 kts | 83° |
| 2026-04-14 02:22 | 29.37064 | 51.15315 | 31132 ft | 508 kts | 83° |
| 2026-04-14 02:22 | 29.38060 | 51.23344 | 31137 ft | 509 kts | 83° |
| 2026-04-14 02:23 | 29.39050 | 51.31371 | 31153 ft | 509 kts | 83° |
| 2026-04-14 02:23 | 29.40035 | 51.39410 | 31151 ft | 509 kts | 83° |
| 2026-04-14 02:24 | 29.41016 | 51.47451 | 31167 ft | 509 kts | 83° |
| 2026-04-14 02:24 | 29.41992 | 51.55498 | 31162 ft | 509 kts | 83° |
| 2026-04-14 02:25 | 29.42962 | 51.63524 | 31180 ft | 508 kts | 83° |
| 2026-04-14 02:25 | 29.43926 | 51.71548 | 31177 ft | 507 kts | 83° |
| 2026-04-14 02:26 | 29.44876 | 51.79553 | 31180 ft | 506 kts | 83° |
| 2026-04-14 02:26 | 29.45816 | 51.87552 | 31185 ft | 505 kts | 83° |
| 2026-04-14 02:27 | 29.46752 | 51.95545 | 31195 ft | 505 kts | 83° |
| 2026-04-14 02:27 | 29.47681 | 52.03524 | 31200 ft | 505 kts | 83° |
| 2026-04-14 02:28 | 29.48609 | 52.11518 | 31191 ft | 504 kts | 83° |
| 2026-04-14 02:28 | 29.49524 | 52.19451 | 31192 ft | 503 kts | 83° |
| 2026-04-14 02:29 | 29.50438 | 52.27425 | 31188 ft | 504 kts | 83° |
| 2026-04-14 02:29 | 29.51348 | 52.35405 | 31188 ft | 504 kts | 83° |
| 2026-04-14 02:30 | 29.52254 | 52.43383 | 31197 ft | 504 kts | 83° |
| 2026-04-14 02:30 | 29.53156 | 52.51381 | 31180 ft | 504 kts | 83° |
| 2026-04-14 02:31 | 29.54065 | 52.59328 | 31183 ft | 505 kts | 81° |
| 2026-04-14 02:31 | 29.55437 | 52.67234 | 31193 ft | 505 kts | 77° |
| 2026-04-14 02:32 | 29.56997 | 52.75099 | 31191 ft | 505 kts | 77° |
| 2026-04-14 02:32 | 29.58533 | 52.82982 | 31184 ft | 506 kts | 77° |
| 2026-04-14 02:33 | 29.60027 | 52.90908 | 31192 ft | 506 kts | 78° |
| 2026-04-14 02:34 | 29.62228 | 53.02756 | 31192 ft | 506 kts | 78° |
| 2026-04-14 02:34 | 29.63696 | 53.10686 | 31193 ft | 507 kts | 78° |
| 2026-04-14 02:35 | 29.65159 | 53.18607 | 31189 ft | 507 kts | 78° |
| 2026-04-14 02:35 | 29.66610 | 53.26485 | 31188 ft | 507 kts | 78° |
| 2026-04-14 02:36 | 29.68067 | 53.34424 | 31186 ft | 507 kts | 78° |
| 2026-04-14 02:36 | 29.69519 | 53.42366 | 31187 ft | 508 kts | 78° |
| 2026-04-14 02:37 | 29.70972 | 53.50343 | 31183 ft | 508 kts | 78° |
| 2026-04-14 02:37 | 29.72417 | 53.58308 | 31187 ft | 508 kts | 78° |
| 2026-04-14 02:38 | 29.73858 | 53.66274 | 31183 ft | 509 kts | 78° |
| 2026-04-14 02:38 | 29.75296 | 53.74250 | 31179 ft | 509 kts | 78° |
| 2026-04-14 02:39 | 29.76720 | 53.82183 | 31183 ft | 510 kts | 78° |
| 2026-04-14 02:39 | 29.78153 | 53.90188 | 31179 ft | 510 kts | 78° |
| 2026-04-14 02:40 | 29.79581 | 53.98189 | 31185 ft | 510 kts | 78° |
| 2026-04-14 02:40 | 29.81007 | 54.06206 | 31179 ft | 510 kts | 78° |
| 2026-04-14 02:41 | 29.82426 | 54.14207 | 31166 ft | 510 kts | 78° |
| 2026-04-14 02:41 | 29.83836 | 54.22193 | 31161 ft | 509 kts | 78° |
| 2026-04-14 02:42 | 29.85240 | 54.30176 | 31163 ft | 508 kts | 78° |
| 2026-04-14 02:42 | 29.86630 | 54.38102 | 31162 ft | 507 kts | 79° |
| 2026-04-14 02:43 | 29.88022 | 54.46074 | 31161 ft | 507 kts | 79° |
| 2026-04-14 02:43 | 29.89407 | 54.54031 | 31166 ft | 506 kts | 79° |
| 2026-04-14 02:44 | 29.90784 | 54.62004 | 31163 ft | 507 kts | 79° |
| 2026-04-14 02:44 | 29.92152 | 54.69966 | 31167 ft | 507 kts | 79° |
| 2026-04-14 02:45 | 29.93517 | 54.77943 | 31163 ft | 507 kts | 79° |
| 2026-04-14 02:45 | 29.94879 | 54.85932 | 31169 ft | 508 kts | 79° |
| 2026-04-14 02:46 | 29.96238 | 54.93928 | 31174 ft | 509 kts | 79° |
| 2026-04-14 02:46 | 29.97594 | 55.01938 | 31171 ft | 509 kts | 79° |
| 2026-04-14 02:47 | 29.98941 | 55.09923 | 31165 ft | 510 kts | 79° |
| 2026-04-14 02:47 | 30.00293 | 55.17974 | 31167 ft | 511 kts | 79° |
| 2026-04-14 02:48 | 30.01642 | 55.26037 | 31167 ft | 512 kts | 79° |
| 2026-04-14 02:48 | 30.02989 | 55.34117 | 31162 ft | 512 kts | 79° |
| 2026-04-14 02:49 | 30.04327 | 55.42186 | 31162 ft | 512 kts | 79° |
| 2026-04-14 02:49 | 30.05651 | 55.50260 | 31164 ft | 512 kts | 79° |
| 2026-04-14 02:50 | 30.06960 | 55.58291 | 31158 ft | 512 kts | 79° |
| 2026-04-14 02:50 | 30.08273 | 55.66369 | 31155 ft | 512 kts | 79° |
| 2026-04-14 02:51 | 30.09582 | 55.74447 | 31151 ft | 511 kts | 79° |
| 2026-04-14 02:51 | 30.10883 | 55.82509 | 31144 ft | 510 kts | 79° |
| 2026-04-14 02:52 | 30.12177 | 55.90560 | 31152 ft | 509 kts | 79° |
| 2026-04-14 02:52 | 30.13464 | 55.98602 | 31145 ft | 509 kts | 79° |
| 2026-04-14 02:53 | 30.14745 | 56.06638 | 31132 ft | 508 kts | 80° |
| 2026-04-14 02:53 | 30.16019 | 56.14662 | 31138 ft | 507 kts | 80° |
| 2026-04-14 02:54 | 30.17286 | 56.22675 | 31138 ft | 507 kts | 80° |
| 2026-04-14 02:54 | 30.18550 | 56.30701 | 31136 ft | 507 kts | 80° |
| 2026-04-14 02:55 | 30.19596 | 56.37367 | 31141 ft | 507 kts | 80° |